NW248 CYXU-CYXU
Flight info
| Callsign | NW248 |
|---|---|
| Flight time | N/A |
| Altitude | 1900 |
| Route | CURCUITS |
| Aircraft |
Departure
| Time | 2026-04-23 01:24 |
|---|---|
| Airport | London International Airport (CYXU) |
Arrival
| Time | N/A |
|---|---|
| Airport | London International Airport (CYXU) |
| Time | Latitude | Longitude | Altitude | Speed | Heading |
|---|---|---|---|---|---|
| 2026-04-23 01:10 | 43.03539 | -81.16307 | 908 ft | 0 kts | 257° |
| 2026-04-23 01:13 | 43.03569 | -81.16334 | 909 ft | 17 kts | 6° |
| 2026-04-23 01:14 | 43.03618 | -81.16326 | 910 ft | 3 kts | 37° |
| 2026-04-23 01:14 | 43.03621 | -81.16315 | 910 ft | 0 kts | 78° |
| 2026-04-23 01:16 | 43.03633 | -81.16237 | 909 ft | 15 kts | 77° |
| 2026-04-23 01:16 | 43.03639 | -81.16193 | 909 ft | 17 kts | 81° |
| 2026-04-23 01:16 | 43.03658 | -81.16066 | 908 ft | 16 kts | 79° |
| 2026-04-23 01:16 | 43.03678 | -81.15926 | 907 ft | 7 kts | 82° |
| 2026-04-23 01:17 | 43.03689 | -81.15846 | 906 ft | 11 kts | 79° |
| 2026-04-23 01:17 | 43.03704 | -81.15733 | 906 ft | 13 kts | 79° |
| 2026-04-23 01:17 | 43.03658 | -81.15638 | 907 ft | 13 kts | 138° |
| 2026-04-23 01:17 | 43.03584 | -81.15549 | 907 ft | 15 kts | 139° |
| 2026-04-23 01:18 | 43.03504 | -81.15452 | 909 ft | 15 kts | 139° |
| 2026-04-23 01:18 | 43.03424 | -81.15358 | 910 ft | 16 kts | 140° |
| 2026-04-23 01:18 | 43.03339 | -81.15254 | 909 ft | 17 kts | 138° |
| 2026-04-23 01:18 | 43.03249 | -81.15147 | 909 ft | 18 kts | 138° |
| 2026-04-23 01:19 | 43.03208 | -81.15097 | 907 ft | 9 kts | 138° |
| 2026-04-23 01:19 | 43.03150 | -81.15027 | 906 ft | 13 kts | 139° |
| 2026-04-23 01:19 | 43.03078 | -81.14942 | 906 ft | 15 kts | 138° |
| 2026-04-23 01:19 | 43.02997 | -81.14839 | 904 ft | 17 kts | 134° |
| 2026-04-23 01:20 | 43.02909 | -81.14738 | 906 ft | 16 kts | 139° |
| 2026-04-23 01:20 | 43.02828 | -81.14640 | 906 ft | 5 kts | 137° |
| 2026-04-23 01:20 | 43.02792 | -81.14597 | 907 ft | 8 kts | 140° |
| 2026-04-23 01:20 | 43.02747 | -81.14543 | 908 ft | 9 kts | 137° |
| 2026-04-23 01:21 | 43.02696 | -81.14482 | 909 ft | 11 kts | 139° |
| 2026-04-23 01:21 | 43.02634 | -81.14406 | 908 ft | 14 kts | 140° |
| 2026-04-23 01:21 | 43.02556 | -81.14313 | 907 ft | 16 kts | 139° |
| 2026-04-23 01:21 | 43.02471 | -81.14210 | 906 ft | 17 kts | 139° |
| 2026-04-23 01:22 | 43.02374 | -81.14096 | 904 ft | 19 kts | 135° |
| 2026-04-23 01:22 | 43.02319 | -81.13967 | 904 ft | 17 kts | 52° |
| 2026-04-23 01:22 | 43.02387 | -81.13862 | 904 ft | 14 kts | 45° |
| 2026-04-23 01:22 | 43.02448 | -81.13868 | 905 ft | 0 kts | 319° |
| 2026-04-23 01:23 | 43.02535 | -81.13962 | 905 ft | 45 kts | 310° |
| 2026-04-23 01:23 | 43.02754 | -81.14401 | 1053 ft | 53 kts | 308° |
| 2026-04-23 01:24 | 43.02938 | -81.14895 | 1255 ft | 67 kts | 330° |
| 2026-04-23 01:24 | 43.03346 | -81.15347 | 1451 ft | 83 kts | 341° |
| 2026-04-23 01:24 | 43.03839 | -81.15754 | 1735 ft | 81 kts | 347° |
| 2026-04-23 01:24 | 43.04376 | -81.16143 | 1919 ft | 90 kts | 348° |
| 2026-04-23 01:25 | 43.04945 | -81.16551 | 2100 ft | 93 kts | 350° |
| 2026-04-23 01:25 | 43.05551 | -81.16679 | 2326 ft | 93 kts | 25° |
| 2026-04-23 01:25 | 43.06148 | -81.16370 | 2535 ft | 95 kts | 52° |
| 2026-04-23 01:25 | 43.06539 | -81.15637 | 2717 ft | 97 kts | 84° |
| 2026-04-23 01:26 | 43.06604 | -81.14719 | 2847 ft | 102 kts | 113° |
| 2026-04-23 01:26 | 43.06430 | -81.13738 | 2879 ft | 107 kts | 126° |
| 2026-04-23 01:26 | 43.06099 | -81.12820 | 2908 ft | 110 kts | 139° |
| 2026-04-23 01:26 | 43.05599 | -81.12025 | 2928 ft | 110 kts | 149° |
| 2026-04-23 01:27 | 43.05013 | -81.11353 | 2971 ft | 108 kts | 159° |
| 2026-04-23 01:27 | 43.04430 | -81.10665 | 2946 ft | 112 kts | 149° |
| 2026-04-23 01:27 | 43.03898 | -81.09843 | 2863 ft | 116 kts | 151° |
| 2026-04-23 01:27 | 43.03310 | -81.09205 | 2970 ft | 110 kts | 158° |
| 2026-04-23 01:28 | 43.02674 | -81.08557 | 2889 ft | 114 kts | 155° |
| 2026-04-23 01:28 | 43.02002 | -81.08017 | 2912 ft | 111 kts | 170° |
| 2026-04-23 01:28 | 43.01266 | -81.07755 | 2926 ft | 111 kts | 188° |
| 2026-04-23 01:28 | 43.00532 | -81.07759 | 2956 ft | 112 kts | 196° |
| 2026-04-23 01:29 | 42.99931 | -81.08210 | 3113 ft | 100 kts | 259° |
| 2026-04-23 01:29 | 42.99775 | -81.09192 | 2899 ft | 116 kts | 278° |